Time;durP1;ratioP1;P1;durP2;ratioP2;P2;SDS_P1;SDS_P2;PMS_P1;PMS_P2;Temp;Humidity;BMP_temperature;BMP_pressure;BME280_temperature;BME280_humidity;BME280_pressure;Samples;Min_cycle;Max_cycle;Signal;HPM_P1;HPM_P2
2023/07/27 00:05:38;;;;;;;5.70;3.70;;;17.00;1.00;;;;;;20879679;28;20036;-44
2023/07/27 00:15:39;;;;;;;7.05;3.33;;;17.00;1.00;;;;;;20893110;28;20067;-44
2023/07/27 00:25:40;;;;;;;8.13;3.78;;;17.00;1.00;;;;;;20857615;28;20052;-44
2023/07/27 00:35:41;;;;;;;7.13;4.00;;;17.20;1.00;;;;;;20880695;28;20045;-44
2023/07/27 00:45:43;;;;;;;7.88;4.28;;;16.80;1.00;;;;;;20887044;28;20049;-44
2023/07/27 00:55:45;;;;;;;9.45;5.72;;;16.30;1.00;;;;;;20878466;28;20484;-44
2023/07/27 01:05:46;;;;;;;10.10;5.60;;;15.90;1.00;;;;;;20874068;28;20037;-44
2023/07/27 01:15:55;;;;;;;11.07;6.57;;;15.40;17.30;;;;;;20876859;28;20041;-43
2023/07/27 01:26:11;;;;;;;11.70;6.53;;;15.30;83.80;;;;;;20875895;28;20037;-43
2023/07/27 01:36:21;;;;;;;8.27;5.05;;;15.20;99.90;;;;;;20881491;28;21587;-43
2023/07/27 01:46:24;;;;;;;9.45;5.20;;;15.10;99.90;;;;;;20874298;28;20261;-43
2023/07/27 01:56:26;;;;;;;7.72;4.55;;;15.10;99.90;;;;;;20878827;28;20044;-43
2023/07/27 02:06:27;;;;;;;5.15;3.30;;;14.90;99.90;;;;;;20876878;28;20041;-43
2023/07/27 02:16:28;;;;;;;4.55;3.03;;;14.80;99.90;;;;;;20876544;28;20048;-43
2023/07/27 02:26:30;;;;;;;5.43;3.05;;;14.70;99.90;;;;;;20870416;28;20047;-42
2023/07/27 02:36:31;;;;;;;4.03;2.63;;;14.70;99.90;;;;;;20870836;28;20051;-42
2023/07/27 02:46:32;;;;;;;3.75;2.30;;;14.60;99.90;;;;;;20874010;28;20055;-42
2023/07/27 02:56:33;;;;;;;7.10;3.20;;;14.50;99.90;;;;;;20871137;28;20079;-42
2023/07/27 03:06:35;;;;;;;5.45;3.47;;;14.50;99.90;;;;;;20873477;28;20117;-42
2023/07/27 03:16:36;;;;;;;5.03;3.17;;;14.50;99.90;;;;;;20835076;28;20064;-42
2023/07/27 03:26:37;;;;;;;10.38;6.50;;;14.70;99.90;;;;;;20865471;28;20041;-42
2023/07/27 03:36:38;;;;;;;9.18;6.18;;;14.70;99.90;;;;;;20861807;28;20052;-41
2023/07/27 03:46:39;;;;;;;13.38;8.98;;;14.70;99.90;;;;;;20883785;28;20428;-41
2023/07/27 03:56:40;;;;;;;12.82;8.75;;;14.80;99.90;;;;;;20865425;28;20033;-41
2023/07/27 04:06:42;;;;;;;17.08;8.80;;;14.80;99.90;;;;;;20873121;28;20654;-42
2023/07/27 04:16:43;;;;;;;14.95;8.80;;;14.70;99.90;;;;;;20878388;28;20048;-42
2023/07/27 04:26:44;;;;;;;12.43;8.10;;;14.70;99.90;;;;;;20869566;28;20040;-41
2023/07/27 04:36:47;;;;;;;12.68;7.90;;;14.70;99.90;;;;;;20845739;28;20316;-42
2023/07/27 04:46:48;;;;;;;12.68;8.70;;;14.70;99.90;;;;;;20843477;28;20044;-42
2023/07/27 04:56:49;;;;;;;12.82;8.48;;;14.70;99.90;;;;;;20839721;28;20431;-42
2023/07/27 05:06:50;;;;;;;12.85;8.23;;;14.60;99.90;;;;;;20866453;28;20045;-42
2023/07/27 05:16:51;;;;;;;10.70;7.13;;;14.60;99.90;;;;;;20852351;28;20037;-42
2023/07/27 05:26:53;;;;;;;12.55;6.90;;;14.70;99.90;;;;;;20860242;28;20403;-41
2023/07/27 05:36:54;;;;;;;8.93;6.10;;;14.70;99.90;;;;;;20871633;28;20048;-42
2023/07/27 05:46:56;;;;;;;7.95;5.75;;;14.80;99.90;;;;;;20863680;28;20033;-41
2023/07/27 05:56:57;;;;;;;7.80;5.07;;;14.90;99.90;;;;;;20808092;28;20557;-41
2023/07/27 06:06:58;;;;;;;8.43;5.53;;;15.00;99.90;;;;;;20807109;28;20037;-42
2023/07/27 06:16:59;;;;;;;8.15;5.32;;;15.10;99.90;;;;;;20815261;28;20516;-42
2023/07/27 06:27:00;;;;;;;8.38;5.45;;;15.20;99.90;;;;;;20806534;28;20376;-42
2023/07/27 06:37:01;;;;;;;6.85;5.50;;;15.40;99.90;;;;;;20832749;28;20056;-42
2023/07/27 06:47:02;;;;;;;7.45;5.85;;;15.60;99.90;;;;;;20840998;28;20685;-43
2023/07/27 06:57:09;;;;;;;7.82;5.53;;;15.70;99.90;;;;;;20838030;28;20053;-43
2023/07/27 07:07:11;;;;;;;6.33;4.97;;;15.80;99.90;;;;;;20886178;28;20079;-43
2023/07/27 07:17:13;;;;;;;5.65;4.55;;;16.20;99.90;;;;;;20785375;28;95628;-43
2023/07/27 07:27:14;;;;;;;6.15;4.13;;;16.30;99.90;;;;;;20734151;28;20045;-43
2023/07/27 07:37:15;;;;;;;5.22;3.95;;;16.60;99.90;;;;;;20729551;28;21956;-44
2023/07/27 07:47:16;;;;;;;4.78;3.53;;;16.70;99.90;;;;;;20655737;28;20042;-44
2023/07/27 07:57:20;;;;;;;5.00;2.22;;;16.80;99.90;;;;;;20667413;28;20052;-44
2023/07/27 08:07:21;;;;;;;4.10;1.90;;;17.20;99.90;;;;;;20666408;28;20034;-44
2023/07/27 08:17:22;;;;;;;6.05;1.88;;;17.30;99.90;;;;;;20669164;28;20052;-44
2023/07/27 08:27:23;;;;;;;1.90;0.98;;;17.30;99.90;;;;;;20658513;28;20540;-44
2023/07/27 08:37:24;;;;;;;3.70;1.55;;;17.30;99.90;;;;;;20683400;28;20504;-44
2023/07/27 08:47:26;;;;;;;5.70;1.48;;;17.40;99.90;;;;;;20735749;28;20045;-42
2023/07/27 08:57:27;;;;;;;4.47;1.50;;;17.40;99.90;;;;;;20740953;28;20390;-42
2023/07/27 09:07:28;;;;;;;2.88;1.48;;;17.40;99.90;;;;;;20736831;28;20048;-42
2023/07/27 09:17:31;;;;;;;3.42;1.50;;;17.50;99.90;;;;;;20739762;28;20056;-44
2023/07/27 09:27:43;;;;;;;3.28;1.48;;;17.50;99.90;;;;;;20734891;28;20493;-42
2023/07/27 09:37:46;;;;;;;3.08;1.40;;;17.60;99.90;;;;;;20729335;28;20525;-42
2023/07/27 09:47:49;;;;;;;4.82;1.67;;;17.60;99.90;;;;;;20729727;28;20413;-43
2023/07/27 09:57:51;;;;;;;8.73;6.20;;;17.80;99.90;;;;;;20742661;28;20717;-43
2023/07/27 10:07:52;;;;;;;2.35;1.30;;;17.90;99.90;;;;;;20742495;28;20029;-44
2023/07/27 10:17:58;;;;;;;3.03;1.83;;;17.90;99.90;;;;;;20748055;28;20045;-42
2023/07/27 10:28:00;;;;;;;3.88;1.58;;;18.00;99.90;;;;;;20740098;28;20520;-42
2023/07/27 10:38:04;;;;;;;1.88;0.70;;;18.00;99.90;;;;;;20734307;28;20057;-43
2023/07/27 10:48:16;;;;;;;3.72;1.90;;;18.10;99.90;;;;;;20736287;28;20401;-42
2023/07/27 10:58:17;;;;;;;6.53;4.70;;;18.20;99.90;;;;;;20728818;28;20042;-42
2023/07/27 11:08:19;;;;;;;5.60;3.85;;;18.30;99.90;;;;;;20733306;28;20021;-42
2023/07/27 11:18:23;;;;;;;5.07;2.75;;;18.40;99.90;;;;;;20732924;28;20049;-42
2023/07/27 11:28:25;;;;;;;3.58;2.67;;;18.40;99.90;;;;;;20733111;28;20477;-42
2023/07/27 11:38:27;;;;;;;4.78;3.47;;;18.30;99.90;;;;;;20745024;28;20049;-42
2023/07/27 11:48:29;;;;;;;6.85;5.30;;;18.50;99.90;;;;;;20740111;28;20033;-42
2023/07/27 11:58:30;;;;;;;4.32;2.42;;;18.60;99.90;;;;;;20738900;28;20045;-42
2023/07/27 12:08:34;;;;;;;6.15;3.47;;;18.70;99.90;;;;;;20742026;28;20041;-42
2023/07/27 12:18:35;;;;;;;4.03;3.20;;;18.70;99.90;;;;;;20733542;28;20056;-42
2023/07/27 12:28:36;;;;;;;4.95;2.85;;;18.70;99.90;;;;;;20737447;28;20045;-42
2023/07/27 12:38:38;;;;;;;6.68;4.03;;;18.80;99.90;;;;;;20738075;28;20049;-42
2023/07/27 12:48:39;;;;;;;7.40;6.68;;;19.00;99.90;;;;;;20745870;28;20041;-42
2023/07/27 12:58:40;;;;;;;5.05;3.90;;;19.00;99.90;;;;;;20742492;28;20041;-42
2023/07/27 13:08:41;;;;;;;4.78;3.40;;;19.10;99.90;;;;;;20737593;28;20041;-42
2023/07/27 13:18:42;;;;;;;7.38;3.83;;;19.00;99.90;;;;;;20745551;28;20037;-42
2023/07/27 13:28:43;;;;;;;5.25;3.03;;;19.00;99.90;;;;;;20733473;28;21278;-42
2023/07/27 13:38:44;;;;;;;5.30;3.33;;;18.90;99.90;;;;;;20732854;28;20045;-42
2023/07/27 13:48:45;;;;;;;9.00;4.78;;;18.70;99.90;;;;;;20732839;28;20052;-42
2023/07/27 13:58:46;;;;;;;10.63;5.80;;;18.80;99.90;;;;;;20730112;28;20506;-42
2023/07/27 14:08:47;;;;;;;12.27;5.03;;;18.80;99.90;;;;;;20730246;28;20045;-42
2023/07/27 14:18:48;;;;;;;8.50;3.45;;;18.80;99.90;;;;;;20733465;28;20526;-42
2023/07/27 14:28:49;;;;;;;9.98;4.53;;;18.70;99.90;;;;;;20725039;28;20048;-42
2023/07/27 14:38:50;;;;;;;5.85;3.13;;;18.80;99.90;;;;;;20734955;28;20049;-42
2023/07/27 14:48:51;;;;;;;11.32;4.35;;;18.80;99.90;;;;;;20720985;28;20794;-42
2023/07/27 14:58:53;;;;;;;10.05;4.53;;;18.70;99.90;;;;;;20722165;28;20591;-42
2023/07/27 15:08:54;;;;;;;15.65;6.43;;;18.80;99.90;;;;;;20681189;28;20038;-42
2023/07/27 15:18:55;;;;;;;13.93;6.03;;;18.70;99.90;;;;;;20739733;28;20662;-42
2023/07/27 15:28:56;;;;;;;8.70;4.55;;;18.70;99.90;;;;;;20729898;28;20048;-42
2023/07/27 15:38:57;;;;;;;15.57;5.22;;;18.70;99.90;;;;;;20735482;28;20402;-42
2023/07/27 15:48:58;;;;;;;13.30;5.68;;;18.70;99.90;;;;;;20704497;28;20064;-42
2023/07/27 15:58:59;;;;;;;12.90;5.20;;;18.60;99.90;;;;;;20725723;28;20037;-42
2023/07/27 16:09:00;;;;;;;10.80;4.28;;;18.60;99.90;;;;;;20717053;28;20117;-42
2023/07/27 16:19:01;;;;;;;12.07;4.38;;;18.60;99.90;;;;;;20741733;28;20046;-42
2023/07/27 16:29:02;;;;;;;11.70;5.47;;;18.60;99.90;;;;;;20750643;28;20051;-42
2023/07/27 16:39:03;;;;;;;13.45;5.15;;;18.60;99.90;;;;;;20739313;28;20049;-42
2023/07/27 16:49:05;;;;;;;11.07;4.00;;;18.60;99.90;;;;;;20727979;28;20420;-42
2023/07/27 16:59:06;;;;;;;7.65;2.78;;;18.60;99.90;;;;;;20720461;28;20052;-42
2023/07/27 17:09:07;;;;;;;7.43;3.15;;;18.60;99.90;;;;;;20720976;28;20037;-42
2023/07/27 17:19:08;;;;;;;5.90;2.35;;;18.60;99.90;;;;;;20714078;28;20045;-42
2023/07/27 17:29:09;;;;;;;7.68;2.78;;;18.60;99.90;;;;;;20725695;28;20574;-42
2023/07/27 17:39:11;;;;;;;8.88;3.40;;;18.60;99.90;;;;;;20664200;28;20541;-42
2023/07/27 17:49:13;;;;;;;8.52;3.38;;;18.70;99.90;;;;;;20656355;28;20057;-42
2023/07/27 17:59:14;;;;;;;9.85;4.22;;;18.60;99.90;;;;;;20650970;28;20049;-41
2023/07/27 18:09:15;;;;;;;7.90;4.25;;;18.60;99.90;;;;;;20650564;28;20049;-42
2023/07/27 18:19:16;;;;;;;9.05;4.05;;;18.60;99.90;;;;;;20643078;28;20510;-41
2023/07/27 18:29:17;;;;;;;9.25;4.43;;;18.50;99.90;;;;;;20641894;28;20046;-42
2023/07/27 18:39:18;;;;;;;9.35;3.83;;;18.40;99.90;;;;;;20675210;28;20692;-42
2023/07/27 18:49:19;;;;;;;10.68;4.40;;;18.40;99.90;;;;;;20702272;28;20041;-42
2023/07/27 18:59:20;;;;;;;13.27;5.82;;;18.40;99.90;;;;;;20718933;28;20050;-42
2023/07/27 19:09:21;;;;;;;10.90;4.75;;;18.40;99.90;;;;;;20733668;28;20643;-42
2023/07/27 19:19:22;;;;;;;9.68;4.57;;;18.40;99.90;;;;;;20744006;28;20433;-42
2023/07/27 19:29:24;;;;;;;6.32;3.30;;;18.50;99.90;;;;;;20740601;28;20046;-42
2023/07/27 19:39:25;;;;;;;8.18;4.68;;;18.50;99.90;;;;;;20700669;28;1119114;-42
2023/07/27 19:49:26;;;;;;;12.93;4.70;;;18.50;99.90;;;;;;20741314;28;20037;-42
2023/07/27 19:59:27;;;;;;;8.32;3.78;;;18.50;99.90;;;;;;20743435;28;20049;-42
2023/07/27 20:09:28;;;;;;;13.25;4.82;;;18.50;99.90;;;;;;20741724;28;20541;-42
2023/07/27 20:19:30;;;;;;;10.88;5.88;;;18.50;99.90;;;;;;20734498;28;20045;-42
2023/07/27 20:29:31;;;;;;;8.88;4.10;;;18.50;99.90;;;;;;20712857;28;20426;-42
2023/07/27 20:39:32;;;;;;;7.82;4.50;;;18.40;99.90;;;;;;20728254;28;20167;-43
2023/07/27 20:49:34;;;;;;;10.70;5.60;;;18.40;99.90;;;;;;20726278;28;20040;-42
2023/07/27 20:59:35;;;;;;;9.02;4.15;;;18.50;99.90;;;;;;20736212;28;20220;-42
2023/07/27 21:09:36;;;;;;;8.70;4.90;;;18.60;99.90;;;;;;20735829;28;20554;-42
2023/07/27 21:19:37;;;;;;;9.40;4.82;;;18.40;99.90;;;;;;20736115;28;20042;-42
2023/07/27 21:29:38;;;;;;;9.23;4.50;;;18.40;99.90;;;;;;20736266;28;20038;-42
2023/07/27 21:39:39;;;;;;;12.57;3.88;;;18.50;99.90;;;;;;20744219;28;20429;-42
2023/07/27 21:49:41;;;;;;;6.70;4.53;;;18.50;99.90;;;;;;20747212;28;20100;-42
2023/07/27 21:59:42;;;;;;;10.20;3.83;;;18.50;99.90;;;;;;20734688;28;20056;-42
2023/07/27 22:09:43;;;;;;;8.52;3.78;;;18.50;99.90;;;;;;20734148;28;20523;-42
2023/07/27 22:19:44;;;;;;;7.95;3.80;;;18.50;99.90;;;;;;20739576;28;20056;-42
2023/07/27 22:29:45;;;;;;;8.20;3.47;;;18.50;99.90;;;;;;20733668;28;20038;-42
2023/07/27 22:39:46;;;;;;;8.63;4.38;;;18.50;99.90;;;;;;20733735;28;20064;-42
2023/07/27 22:49:48;;;;;;;9.07;4.00;;;18.50;99.90;;;;;;20729257;28;20496;-42
2023/07/27 22:59:52;;;;;;;7.32;4.20;;;18.60;99.90;;;;;;20733534;28;20045;-42
2023/07/27 23:09:53;;;;;;;7.68;3.53;;;18.60;99.90;;;;;;20730193;28;20490;-42
2023/07/27 23:19:54;;;;;;;7.60;3.83;;;18.60;99.90;;;;;;20729871;28;20430;-42
2023/07/27 23:29:55;;;;;;;6.72;3.60;;;18.60;99.90;;;;;;20737086;28;20041;-42
2023/07/27 23:39:57;;;;;;;8.43;3.92;;;18.70;99.90;;;;;;20746211;28;20487;-42
2023/07/27 23:49:58;;;;;;;8.60;4.05;;;18.70;99.90;;;;;;20751498;28;20049;-42
2023/07/27 23:59:59;;;;;;;12.35;4.72;;;18.60;99.90;;;;;;20739917;28;20044;-42
